Overview Statistics Trail Chart Weather Telemetry Raw packets
 

This is the latest recevied weather packets stored in our database for station/object OE6JVE-13. If no packets are shown the sender has not sent any weather packets the latest 10 day(s).

<< 3 4 5 6 7 8 9 >>
Time Temp. Humidity Pressure Rain* Wind** Luminosity Snow
1788627060 17.78° C 93% 1012.1 hPa 0 mm - - -
1788626466 18.33° C 92% 1012 hPa 0 mm - - -
1788625881 18.33° C 92% 1011.9 hPa 0 mm - - -
1788625216 18.89° C 92% 1012.1 hPa 0 mm - - -
1788624624 19.44° C 92% 1011.8 hPa 0 mm - - -
1788623440 20° C 91% 1011.8 hPa 0 mm - - -
1788622848 20° C 91% 1011.7 hPa 0 mm - - -
1788622256 19.44° C 92% 1011.6 hPa 0 mm - - -
1788621664 19.44° C 90% 1012 hPa 0 mm - - -
1788621071 19.44° C 89% 1012.1 hPa 0 mm - - -
1788620631 20° C 89% 1012 hPa 0 mm - - -
1788619837 20.56° C 93% 1011.9 hPa 0 mm - - -
1788619251 19.44° C 94% 1012.1 hPa 0 mm - - -
1788618638 18.89° C 95% 1011.9 hPa 0 mm - - -
1788618045 18.33° C 95% 1012.4 hPa 0 mm - - -
1788617455 18.33° C 95% 1012.5 hPa 0 mm - - -
1788616861 17.78° C 94% 1012.4 hPa 0 mm - - -
1788616479 17.78° C 94% 1012.3 hPa 0 mm - - -
1788615019 17.78° C 91% 1012.2 hPa 2.03 mm - - -
1788614427 17.78° C 91% 1012.2 hPa 3.81 mm - - -
1788614001 17.78° C 91% 1012 hPa 5.59 mm - - -
1788613243 17.78° C 90% 1012.7 hPa 5.84 mm - - -
1788611481 18.33° C 79% 1013.6 hPa 3.81 mm - - -
1788609624 22.78° C 55% 1012.1 hPa 0 mm - - -
1788609033 23.89° C 48% 1012.2 hPa 0 mm - - -

* Rain latest hour (hover to see other rain measurements)
** Current wind speed in m/s (hover to see current wind gust speed)